Aérodrome :
LOGIN :

S'inscrire | Disclaimer

   EN    FR    IT 

 










Légende :    VFR   VFR Marginal   IFR   IFR Intensif   IFR Très Intensif
Visi : 
Plafond : 
>= 8 km
>= 3000ft
5 à 8 km
1000 à 3000 ft
1500m à 5 km
500 à 1000 ft
800 à 1500m
200 à 500 ft
< 800m
< 200 ft
Symboles :   Orages  Brouillard  Fortes neiges  Fortes précipitations  Vent > 20 kt
SIGMETs :   Divers  Orages  Givrage  Turbulence  Onde Orograph.  Cendres Volcan.






- Altitude de l'aérodrome : 24 ft
- Code IATA : UME


ESNU - Umeå

DERNIER METAR :
  • 221650Z 33007KT 9999 BKN011 OVC022 01/00 Q0996

METARs EXPIRÉS :
  • 221620Z AUTO 33008KT 9999 UP OVC010/// 01/00 Q0996
  • 221550Z 34009KT 9999 OVC010 01/00 Q0996 R14/29//80
  • 221520Z 34008KT 9999 -RA OVC009 01/01 Q0996 R14/29//80
  • 221450Z 35008KT 9999 -RA OVC008 01/01 Q0996 R14/29//80
  • 221420Z 34008KT 9999 -RA OVC007 02/01 Q0996 R14/29//80

TAF TAF ESNU
Valide du 22 à 15h jusqu'au 23 à 00h UTC


221430Z 2215/2224 35008KT 9999 -RA OVC007
TEMPO 2215/2218 4000 RASN SCT007 OVC015
PROB40 2217/2219 FZDZ
TEMPO 2218/2222 2500 SNRA VV015
BECMG 2222/2224 NSC



MET'MAP, la Météo Aéronautique d'un coup d'oeil ! - Copyright ORBIFLY Décembre 2007 - Disclaimer

ORBIFLY MET'MAP TEAM :

Programmation & Développement : Alexandra Zaïnal
Sur une idée originale de : Baudouin d'Aumeries
Assistance à la programmation : Marc-Olivier Méhu
Soutien technique & logistique : Manuel Goepfert

Contact : metmap@orbifly.com




SOURCES & CREDITS :

   NOAA